createdAt,value
2023-03-21T00:00:04.988Z,7.42
2023-03-21T00:02:33.615Z,7.42
2023-03-21T00:05:13.290Z,7.42
2023-03-21T00:07:43.654Z,7.38
2023-03-21T00:10:18.173Z,7.34
2023-03-21T00:12:55.407Z,7.36
2023-03-21T00:15:30.627Z,7.35
2023-03-21T00:18:11.549Z,7.36
2023-03-21T00:20:39.784Z,7.34
2023-03-21T00:23:07.954Z,7.34
2023-03-21T00:25:36.341Z,7.36
2023-03-21T00:28:08.640Z,7.36
2023-03-21T00:30:41.059Z,7.36
2023-03-21T00:33:22.043Z,7.38
2023-03-21T00:36:02.532Z,7.38
2023-03-21T00:38:35.051Z,7.19
2023-03-21T00:41:18.897Z,7.34
2023-03-21T00:43:55.649Z,7.31
2023-03-21T00:46:30.034Z,7.34
2023-03-21T00:49:01.227Z,7.32
2023-03-21T00:51:32.220Z,7.31
2023-03-21T00:54:00.471Z,7.33
2023-03-21T00:56:29.492Z,7.31
2023-03-21T00:58:57.612Z,7.32
2023-03-21T01:01:32.275Z,7.32
2023-03-21T01:04:05.628Z,7.25
2023-03-21T01:06:40.127Z,7.33
2023-03-21T01:09:09.385Z,7.32
2023-03-21T01:11:40.278Z,7.31
2023-03-21T01:14:21.477Z,7.32
2023-03-21T01:16:53.722Z,7.32
2023-03-21T01:19:40.631Z,7.32
2023-03-21T01:22:14.949Z,7.25
2023-03-21T01:24:52.460Z,7.28
2023-03-21T01:27:22.909Z,7.25
2023-03-21T01:29:52.479Z,7.24
2023-03-21T01:32:26.361Z,7.23
2023-03-21T01:34:54.561Z,7.22
2023-03-21T01:37:26.582Z,7.21
2023-03-21T01:39:54.784Z,7.21
2023-03-21T01:42:23.713Z,7.20
2023-03-21T01:44:57.902Z,7.17
2023-03-21T01:47:32.122Z,7.15
2023-03-21T01:50:08.330Z,7.13
2023-03-21T01:52:42.861Z,7.16
2023-03-21T01:55:16.258Z,7.15
2023-03-21T01:58:05.800Z,7.14
2023-03-21T02:00:55.402Z,7.14
2023-03-21T02:03:38.503Z,7.14
2023-03-21T02:06:30.423Z,7.13
2023-03-21T02:09:08.835Z,6.99
2023-03-21T02:11:38.926Z,7.11
2023-03-21T02:14:11.505Z,7.12
2023-03-21T02:17:01.658Z,7.12
2023-03-21T02:20:02.705Z,7.11
2023-03-21T02:23:01.366Z,7.12
2023-03-21T02:26:05.205Z,7.13
2023-03-21T02:28:39.180Z,7.14
2023-03-21T02:31:28.396Z,7.16
2023-03-21T02:34:24.994Z,7.16
2023-03-21T02:37:03.380Z,7.16
2023-03-21T02:39:45.675Z,7.18
2023-03-21T02:42:21.449Z,7.18
2023-03-21T02:44:57.302Z,7.18
2023-03-21T02:47:35.817Z,7.14
2023-03-21T02:50:12.685Z,7.06
2023-03-21T02:52:48.693Z,7.10
2023-03-21T02:55:21.465Z,7.01
2023-03-21T02:58:06.916Z,7.06
2023-03-21T03:00:42.999Z,7.03
2023-03-21T03:04:50.688Z,6.95
2023-03-21T03:07:37.603Z,6.91
2023-03-21T03:10:28.496Z,6.88
2023-03-21T03:13:06.810Z,6.84
2023-03-21T03:15:45.946Z,6.79
2023-03-21T03:18:22.261Z,6.79
2023-03-21T03:21:03.302Z,6.76
2023-03-21T03:23:38.890Z,6.75
2023-03-21T03:26:13.590Z,6.73
2023-03-21T03:28:50.218Z,6.72
2023-03-21T03:31:26.148Z,6.72
2023-03-21T03:34:04.551Z,6.70
2023-03-21T03:36:41.826Z,6.70
2023-03-21T03:39:15.952Z,6.70
2023-03-21T03:42:27.507Z,6.74
2023-03-21T03:44:52.911Z,6.73
2023-03-21T03:47:32.902Z,6.73
2023-03-21T03:50:10.360Z,6.72
2023-03-21T03:52:55.622Z,6.70
2023-03-21T03:55:34.459Z,6.63
2023-03-21T03:58:21.308Z,6.66
2023-03-21T04:00:51.787Z,6.64
2023-03-21T04:03:20.152Z,6.64
2023-03-21T04:05:51.807Z,6.66
2023-03-21T04:08:23.371Z,6.69
2023-03-21T04:10:57.302Z,6.71
2023-03-21T04:13:26.559Z,6.72
2023-03-21T04:16:08.749Z,6.74
2023-03-21T04:18:39.133Z,6.56
2023-03-21T04:21:12.829Z,6.75
2023-03-21T04:23:45.301Z,6.76
2023-03-21T04:26:13.451Z,6.76
2023-03-21T04:28:53.496Z,6.77
2023-03-21T04:31:27.292Z,6.77
2023-03-21T04:34:10.203Z,6.79
2023-03-21T04:36:44.532Z,6.77
2023-03-21T04:39:15.143Z,6.80
2023-03-21T04:41:46.822Z,6.84
2023-03-21T04:44:17.098Z,6.85
2023-03-21T04:46:46.265Z,6.81
2023-03-21T04:49:14.886Z,6.79
2023-03-21T04:51:45.517Z,6.80
2023-03-21T04:54:21.044Z,6.81
2023-03-21T04:56:49.426Z,6.81
2023-03-21T04:59:17.579Z,6.80
2023-03-21T05:01:46.494Z,6.77
2023-03-21T05:04:17.642Z,6.76
2023-03-21T05:06:47.023Z,6.70
2023-03-21T05:09:18.851Z,6.69
2023-03-21T05:11:47.529Z,6.69
2023-03-21T05:14:19.200Z,6.68
2023-03-21T05:16:53.410Z,6.72
2023-03-21T05:19:23.369Z,6.73
2023-03-21T05:21:53.045Z,6.67
2023-03-21T05:24:25.601Z,6.77
2023-03-21T05:26:56.321Z,6.76
2023-03-21T05:29:31.650Z,6.76
2023-03-21T05:32:03.697Z,6.75
2023-03-21T05:34:32.149Z,6.75
2023-03-21T05:37:01.814Z,6.76
2023-03-21T05:39:47.122Z,6.77
2023-03-21T05:42:23.488Z,6.80
2023-03-21T05:44:51.821Z,6.84
2023-03-21T05:47:25.844Z,6.86
2023-03-21T05:49:56.411Z,6.86
2023-03-21T05:52:25.539Z,6.90
2023-03-21T05:54:55.333Z,6.94
2023-03-21T05:57:28.860Z,6.96
2023-03-21T06:00:00.093Z,7.06
2023-03-21T06:02:29.449Z,7.20
2023-03-21T06:05:01.983Z,7.31
2023-03-21T06:07:30.579Z,7.42
2023-03-21T06:10:00.178Z,7.54
2023-03-21T06:12:28.821Z,7.66
2023-03-21T06:15:11.306Z,7.79
2023-03-21T06:17:55.016Z,7.92
2023-03-21T06:20:23.255Z,8.03
2023-03-21T06:22:54.982Z,8.15
2023-03-21T06:25:24.667Z,8.24
2023-03-21T06:27:53.394Z,8.38
2023-03-21T06:30:22.444Z,8.51
2023-03-21T06:33:11.804Z,8.69
2023-03-21T06:35:42.328Z,8.69
2023-03-21T06:38:15.840Z,8.67
2023-03-21T06:40:48.378Z,8.83
2023-03-21T06:43:17.330Z,8.80
2023-03-21T06:45:46.545Z,8.74
2023-03-21T06:48:15.094Z,8.65
2023-03-21T06:50:52.255Z,8.74
2023-03-21T06:53:25.081Z,8.63
2023-03-21T06:56:15.897Z,8.66
2023-03-21T06:58:47.817Z,8.78
2023-03-21T07:01:38.512Z,8.89
2023-03-21T07:04:08.806Z,8.95
2023-03-21T07:06:38.195Z,9.10
2023-03-21T07:09:07.270Z,9.17
2023-03-21T07:11:38.508Z,9.36
2023-03-21T07:14:07.969Z,9.63
2023-03-21T07:16:36.300Z,9.70
2023-03-21T07:19:04.767Z,9.58
2023-03-21T07:21:33.196Z,9.63
2023-03-21T07:24:01.723Z,9.70
2023-03-21T07:26:29.974Z,9.53
2023-03-21T07:29:01.240Z,9.74
2023-03-21T07:31:29.671Z,9.83
2023-03-21T07:33:58.123Z,9.73
2023-03-21T07:36:26.491Z,9.96
2023-03-21T07:38:55.338Z,10.18
2023-03-21T07:41:26.156Z,10.43
2023-03-21T07:43:54.483Z,10.58
2023-03-21T07:46:25.101Z,10.75
2023-03-21T07:48:53.304Z,11.11
2023-03-21T07:51:22.134Z,11.68
2023-03-21T07:53:50.777Z,12.27
2023-03-21T07:56:19.303Z,12.27
2023-03-21T07:58:47.507Z,12.28
2023-03-21T08:01:18.017Z,13.13
2023-03-21T08:05:51.666Z,14.53
2023-03-21T08:08:19.930Z,13.59
2023-03-21T08:10:48.620Z,13.54
2023-03-21T08:13:17.206Z,13.68
2023-03-21T08:15:45.791Z,14.32
2023-03-21T08:18:14.016Z,14.76
2023-03-21T08:20:46.671Z,13.59
2023-03-21T08:23:16.119Z,13.46
2023-03-21T08:25:47.236Z,12.85
2023-03-21T08:28:17.549Z,12.75
2023-03-21T08:30:49.658Z,12.73
2023-03-21T08:33:18.836Z,12.73
2023-03-21T08:35:47.635Z,13.09
2023-03-21T08:38:17.356Z,13.20
2023-03-21T08:40:46.683Z,13.36
2023-03-21T08:43:15.134Z,13.70
2023-03-21T08:45:44.077Z,13.52
2023-03-21T08:48:14.519Z,13.55
2023-03-21T08:50:42.870Z,13.61
2023-03-21T08:53:13.977Z,14.03
2023-03-21T08:55:46.071Z,13.43
2023-03-21T08:58:16.726Z,13.05
2023-03-21T09:00:44.996Z,12.89
2023-03-21T09:03:13.450Z,12.86
2023-03-21T09:05:45.726Z,12.41
2023-03-21T09:08:14.300Z,12.64
2023-03-21T09:10:46.483Z,12.91
2023-03-21T09:13:14.580Z,12.78
2023-03-21T09:15:42.950Z,12.58
2023-03-21T09:18:15.692Z,12.91
2023-03-21T09:20:45.231Z,13.27
2023-03-21T09:23:14.994Z,13.05
2023-03-21T09:25:46.605Z,13.39
2023-03-21T09:28:18.525Z,13.71
2023-03-21T09:30:47.177Z,13.38
2023-03-21T09:33:25.797Z,13.65
2023-03-21T09:35:55.412Z,14.01
2023-03-21T09:38:30.393Z,14.21
2023-03-21T09:41:12.928Z,13.71
2023-03-21T09:43:56.067Z,14.21
2023-03-21T09:46:37.957Z,14.38
2023-03-21T09:49:10.666Z,14.56
2023-03-21T09:51:43.117Z,14.11
2023-03-21T09:54:19.169Z,13.91
2023-03-21T09:56:48.700Z,14.23
2023-03-21T09:59:27.466Z,14.58
2023-03-21T10:01:55.954Z,14.49
2023-03-21T10:04:25.164Z,14.01
2023-03-21T10:06:59.631Z,13.92
2023-03-21T10:09:29.259Z,13.47
2023-03-21T10:12:04.545Z,13.21
2023-03-21T10:14:40.486Z,12.79
2023-03-21T10:17:19.607Z,12.80
2023-03-21T10:19:52.214Z,12.66
2023-03-21T10:22:21.040Z,12.38
2023-03-21T10:24:49.238Z,12.28
2023-03-21T10:27:19.926Z,12.28
2023-03-21T10:29:53.369Z,12.33
2023-03-21T10:32:23.010Z,12.38
2023-03-21T10:37:25.962Z,12.54
2023-03-21T10:39:56.788Z,12.58
2023-03-21T10:42:27.105Z,12.86
2023-03-21T10:44:59.685Z,12.63
2023-03-21T10:47:33.594Z,12.75
2023-03-21T10:50:09.850Z,12.65
2023-03-21T10:52:47.079Z,12.80
2023-03-21T10:55:23.426Z,12.81
2023-03-21T10:57:57.594Z,12.68
2023-03-21T11:00:35.469Z,12.66
2023-03-21T11:03:04.707Z,12.48
2023-03-21T11:05:38.471Z,12.22
2023-03-21T11:08:12.014Z,12.45
2023-03-21T11:10:49.530Z,12.35
2023-03-21T11:13:20.555Z,12.47
2023-03-21T11:15:55.122Z,11.98
2023-03-21T11:18:25.124Z,11.62
2023-03-21T11:20:56.419Z,11.46
2023-03-21T11:23:29.777Z,11.57
2023-03-21T11:26:00.780Z,11.33
2023-03-21T11:28:37.468Z,11.20
2023-03-21T11:31:09.507Z,11.31
2023-03-21T11:33:40.340Z,11.05
2023-03-21T11:36:26.385Z,10.82
2023-03-21T11:38:59.785Z,10.56
2023-03-21T11:41:32.046Z,10.70
2023-03-21T11:44:01.679Z,10.63
2023-03-21T11:46:41.953Z,11.24
2023-03-21T11:49:11.718Z,11.68
2023-03-21T11:51:47.681Z,11.72
2023-03-21T11:54:20.868Z,12.16
2023-03-21T11:56:52.939Z,12.31
2023-03-21T11:59:34.518Z,12.71
2023-03-21T12:02:26.660Z,13.02
2023-03-21T12:05:04.515Z,13.13
2023-03-21T12:07:50.585Z,13.25
2023-03-21T12:10:34.117Z,13.58
2023-03-21T12:13:19.680Z,13.88
2023-03-21T12:15:55.842Z,13.88
2023-03-21T12:18:51.392Z,13.74
2023-03-21T12:21:24.564Z,14.01
2023-03-21T12:24:00.031Z,14.13
2023-03-21T12:26:33.026Z,13.86
2023-03-21T12:29:14.069Z,13.59
2023-03-21T12:31:57.657Z,13.39
2023-03-21T12:34:44.361Z,13.49
2023-03-21T12:37:24.572Z,13.26
2023-03-21T12:39:58.611Z,13.32
2023-03-21T12:42:42.949Z,13.06
2023-03-21T12:45:17.209Z,13.02
2023-03-21T12:47:50.406Z,13.21
2023-03-21T12:50:25.864Z,13.23
2023-03-21T12:52:59.510Z,13.51
2023-03-21T12:55:31.734Z,13.47
2023-03-21T12:58:05.817Z,13.39
2023-03-21T13:00:39.840Z,13.14
2023-03-21T13:03:14.174Z,13.11
2023-03-21T13:06:53.887Z,12.78
2023-03-21T13:09:37.588Z,12.54
2023-03-21T13:12:21.342Z,12.21
2023-03-21T13:15:07.882Z,11.86
2023-03-21T13:17:45.308Z,11.27
2023-03-21T13:20:23.735Z,10.73
2023-03-21T13:22:53.548Z,10.34
2023-03-21T13:25:24.285Z,10.16
2023-03-21T13:27:54.912Z,10.30
2023-03-21T13:30:26.631Z,10.52
2023-03-21T13:33:06.340Z,10.49
2023-03-21T13:35:38.663Z,10.51
2023-03-21T13:38:16.464Z,10.33
2023-03-21T13:40:48.884Z,10.26
2023-03-21T13:43:36.413Z,10.25
2023-03-21T13:46:10.586Z,10.25
2023-03-21T13:48:57.835Z,10.11
2023-03-21T13:51:47.889Z,9.99
2023-03-21T13:54:25.436Z,10.03
2023-03-21T13:56:55.915Z,9.97
2023-03-21T13:59:43.110Z,9.94
2023-03-21T14:02:28.514Z,9.88
2023-03-21T14:05:05.717Z,9.69
2023-03-21T14:07:36.969Z,9.73
2023-03-21T14:10:15.681Z,9.61
2023-03-21T14:12:48.698Z,9.58
2023-03-21T14:15:21.918Z,9.49
2023-03-21T14:17:52.623Z,9.32
2023-03-21T14:20:24.222Z,9.38
2023-03-21T14:22:53.858Z,9.37
2023-03-21T14:25:31.272Z,9.42
2023-03-21T14:28:04.305Z,9.52
2023-03-21T14:30:35.883Z,9.49
2023-03-21T14:33:17.408Z,9.65
2023-03-21T14:35:48.132Z,9.88
2023-03-21T14:38:21.890Z,9.72
2023-03-21T14:40:58.201Z,9.67
2023-03-21T14:43:27.756Z,9.72
2023-03-21T14:45:59.021Z,9.91
2023-03-21T14:48:32.334Z,9.75
2023-03-21T14:51:09.258Z,9.58
2023-03-21T14:53:41.032Z,9.55
2023-03-21T14:56:23.008Z,9.64
2023-03-21T14:58:56.209Z,9.94
2023-03-21T15:01:31.228Z,9.85
2023-03-21T15:04:01.085Z,9.99
2023-03-21T15:06:29.440Z,10.09
2023-03-21T15:08:59.674Z,10.31
2023-03-21T15:11:34.349Z,10.26
2023-03-21T15:14:08.065Z,10.25
2023-03-21T15:16:37.336Z,10.15
2023-03-21T15:19:07.265Z,10.02
2023-03-21T15:21:39.348Z,9.97
2023-03-21T15:24:13.988Z,9.93
2023-03-21T15:26:46.010Z,9.80
2023-03-21T15:29:16.218Z,9.88
2023-03-21T15:31:48.036Z,9.83
2023-03-21T15:34:22.925Z,9.81
2023-03-21T15:36:58.725Z,9.86
2023-03-21T15:39:29.864Z,9.73
2023-03-21T15:42:05.093Z,9.69
2023-03-21T15:44:35.930Z,9.81
2023-03-21T15:47:06.706Z,9.79
2023-03-21T15:49:41.390Z,9.87
2023-03-21T15:52:15.280Z,10.10
2023-03-21T15:54:45.752Z,10.41
2023-03-21T15:57:24.458Z,10.64
2023-03-21T15:59:57.716Z,10.79
2023-03-21T16:02:30.824Z,10.89
2023-03-21T16:05:01.482Z,11.00
2023-03-21T16:07:30.101Z,11.00
2023-03-21T16:10:01.432Z,11.03
2023-03-21T16:12:31.216Z,11.14
2023-03-21T16:14:59.450Z,11.19
2023-03-21T16:17:33.251Z,11.27
2023-03-21T16:20:17.845Z,11.29
2023-03-21T16:22:46.204Z,11.30
2023-03-21T16:25:14.534Z,11.28
2023-03-21T16:27:44.755Z,11.28
2023-03-21T16:30:14.227Z,11.23
2023-03-21T16:32:42.845Z,11.16
2023-03-21T16:35:11.363Z,11.05
2023-03-21T16:37:40.552Z,11.03
2023-03-21T16:40:22.977Z,11.01
2023-03-21T16:42:52.962Z,10.96
2023-03-21T16:45:21.457Z,10.93
2023-03-21T16:47:50.113Z,10.92
2023-03-21T16:50:27.876Z,10.90
2023-03-21T16:52:59.863Z,10.87
2023-03-21T16:55:28.375Z,10.84
2023-03-21T16:57:58.229Z,10.81
2023-03-21T17:00:29.219Z,10.80
2023-03-21T17:03:07.587Z,10.72
2023-03-21T17:05:38.969Z,10.68
2023-03-21T17:08:07.596Z,10.62
2023-03-21T17:10:38.673Z,10.58
2023-03-21T17:13:11.608Z,10.53
2023-03-21T17:15:41.524Z,10.47
2023-03-21T17:18:11.631Z,10.40
2023-03-21T17:20:41.725Z,10.37
2023-03-21T17:23:11.258Z,10.31
2023-03-21T17:25:39.615Z,10.26
2023-03-21T17:28:08.786Z,10.24
2023-03-21T17:30:40.307Z,10.18
2023-03-21T17:33:09.564Z,10.13
2023-03-21T17:35:38.065Z,10.09
2023-03-21T17:38:11.960Z,10.05
2023-03-21T17:40:40.805Z,10.02
2023-03-21T17:43:16.187Z,10.01
2023-03-21T17:45:46.121Z,9.94
2023-03-21T17:48:14.476Z,9.90
2023-03-21T17:50:44.552Z,9.87
2023-03-21T17:53:13.090Z,9.83
2023-03-21T17:55:46.301Z,9.80
2023-03-21T17:58:15.055Z,9.75
2023-03-21T18:00:43.550Z,9.66
2023-03-21T18:03:13.573Z,9.64
2023-03-21T18:08:09.788Z,9.53
2023-03-21T18:10:40.858Z,9.48
2023-03-21T18:13:11.925Z,9.43
2023-03-21T18:15:44.895Z,9.38
2023-03-21T18:18:14.532Z,9.31
2023-03-21T18:20:52.249Z,9.23
2023-03-21T18:23:26.105Z,9.11
2023-03-21T18:25:54.956Z,9.01
2023-03-21T18:28:23.610Z,8.92
2023-03-21T18:31:09.484Z,8.82
2023-03-21T18:33:42.361Z,8.72
2023-03-21T18:36:14.237Z,8.63
2023-03-21T18:38:44.866Z,8.63
2023-03-21T18:41:15.166Z,8.60
2023-03-21T18:44:05.611Z,8.53
2023-03-21T18:46:33.418Z,8.35
2023-03-21T18:49:26.989Z,8.36
2023-03-21T18:51:50.531Z,8.31
2023-03-21T18:54:23.807Z,8.24
2023-03-21T18:59:41.219Z,8.00
2023-03-21T19:02:09.797Z,7.94
2023-03-21T19:04:38.483Z,7.87
2023-03-21T19:07:08.118Z,7.84
2023-03-21T19:10:05.228Z,7.82
2023-03-21T19:12:29.782Z,7.79
2023-03-21T19:15:01.721Z,7.77
2023-03-21T19:20:19.430Z,7.76
2023-03-21T19:22:47.907Z,7.63
2023-03-21T19:25:18.386Z,7.72
2023-03-21T19:27:47.385Z,7.71
2023-03-21T19:30:16.244Z,7.83
2023-03-21T19:32:45.448Z,7.85
2023-03-21T19:35:14.469Z,7.89
2023-03-21T19:37:42.900Z,7.92
2023-03-21T19:40:12.359Z,7.94
2023-03-21T19:42:44.745Z,7.97
2023-03-21T19:45:14.038Z,8.01
2023-03-21T19:47:42.551Z,8.08
2023-03-21T19:53:03.142Z,8.18
2023-03-21T19:55:31.824Z,8.22
2023-03-21T19:58:02.119Z,8.26
2023-03-21T20:00:31.003Z,8.28
2023-03-21T20:02:59.588Z,8.29
2023-03-21T20:05:28.259Z,8.29
2023-03-21T20:07:59.022Z,8.30
2023-03-21T20:10:28.330Z,8.31
2023-03-21T20:12:57.312Z,8.33
2023-03-21T20:15:29.937Z,8.33
2023-03-21T20:17:58.922Z,8.35
2023-03-21T20:20:27.468Z,8.34
2023-03-21T20:23:06.792Z,8.32
2023-03-21T20:25:36.764Z,8.32
2023-03-21T20:28:15.656Z,8.28
2023-03-21T20:30:53.280Z,8.27
2023-03-21T20:33:22.464Z,8.23
2023-03-21T20:38:52.207Z,8.17
2023-03-21T20:41:20.984Z,8.14
2023-03-21T20:46:47.257Z,7.99
2023-03-21T20:49:15.914Z,7.94
2023-03-21T20:52:44.640Z,7.83
2023-03-21T20:54:35.572Z,7.73
2023-03-21T20:57:04.833Z,7.62
2023-03-21T20:59:33.825Z,7.42
2023-03-21T21:02:05.535Z,7.44
2023-03-21T21:05:05.120Z,7.39
2023-03-21T21:07:27.795Z,7.26
2023-03-21T21:09:56.346Z,7.12
2023-03-21T21:12:27.862Z,7.11
2023-03-21T21:14:57.253Z,6.95
2023-03-21T21:18:01.501Z,6.84
2023-03-21T21:20:17.752Z,6.72
2023-03-21T21:22:58.620Z,6.76
2023-03-21T21:25:29.168Z,6.65
2023-03-21T21:27:58.076Z,6.58
2023-03-21T21:30:26.584Z,6.58
2023-03-21T21:32:59.552Z,6.63
2023-03-21T21:35:27.963Z,6.57
2023-03-21T21:37:56.285Z,6.61
2023-03-21T21:40:25.834Z,6.59
2023-03-21T21:42:54.181Z,6.54
2023-03-21T21:45:22.515Z,6.56
2023-03-21T21:47:50.967Z,6.53
2023-03-21T21:50:22.504Z,6.54
2023-03-21T21:52:54.439Z,6.60
2023-03-21T21:55:23.311Z,6.65
2023-03-21T21:57:53.037Z,6.63
2023-03-21T22:00:25.014Z,6.57
2023-03-21T22:02:53.517Z,6.60
2023-03-21T22:05:23.213Z,6.61
2023-03-21T22:07:56.198Z,6.67
2023-03-21T22:10:27.367Z,6.56
2023-03-21T22:12:55.677Z,6.51
2023-03-21T22:15:23.987Z,6.44
2023-03-21T22:17:54.661Z,6.41
2023-03-21T22:20:24.514Z,6.34
2023-03-21T22:22:52.868Z,6.27
2023-03-21T22:25:23.832Z,6.24
2023-03-21T22:27:52.099Z,6.15
2023-03-21T22:30:20.371Z,6.08
2023-03-21T22:33:08.033Z,6.02
2023-03-21T22:35:38.803Z,5.89
2023-03-21T22:38:07.539Z,5.87
2023-03-21T22:40:35.942Z,5.82
2023-03-21T22:43:04.440Z,5.75
2023-03-21T22:45:34.867Z,5.78
2023-03-21T22:48:03.345Z,5.72
2023-03-21T22:53:20.890Z,5.63
2023-03-21T22:55:49.054Z,5.56
2023-03-21T22:58:17.389Z,5.53
2023-03-21T23:00:45.606Z,5.52
2023-03-21T23:03:14.650Z,5.54
2023-03-21T23:08:51.531Z,5.59
2023-03-21T23:11:20.073Z,5.55
2023-03-21T23:13:51.607Z,5.54
2023-03-21T23:16:27.774Z,5.61
2023-03-21T23:18:56.438Z,5.74
2023-03-21T23:21:25.968Z,5.82
2023-03-21T23:23:55.781Z,5.95
2023-03-21T23:26:24.981Z,6.06
2023-03-21T23:28:53.568Z,6.14
2023-03-21T23:31:23.585Z,6.23
2023-03-21T23:33:52.227Z,6.25
2023-03-21T23:36:22.424Z,6.41
2023-03-21T23:38:52.784Z,6.49
2023-03-21T23:41:26.084Z,6.53
2023-03-21T23:43:54.702Z,6.61
2023-03-21T23:46:23.160Z,6.67
2023-03-21T23:48:53.996Z,6.78
2023-03-21T23:51:24.959Z,6.84
2023-03-21T23:53:53.484Z,6.88
2023-03-21T23:56:28.525Z,6.93
2023-03-21T23:58:58.373Z,6.89
